sensor_id;sensor_type;location;lat;lon;timestamp;temperature;humidity
24091;DHT22;12272;52.426;17.100;2022-10-26T00:00:37;7.30;99.90
24091;DHT22;12272;52.426;17.100;2022-10-26T00:05:40;7.20;99.90
24091;DHT22;12272;52.426;17.100;2022-10-26T00:10:43;7.10;99.90
24091;DHT22;12272;52.426;17.100;2022-10-26T00:15:45;7.10;99.90
24091;DHT22;12272;52.426;17.100;2022-10-26T00:20:48;7.10;99.90
24091;DHT22;12272;52.426;17.100;2022-10-26T00:25:54;7.10;99.90
24091;DHT22;12272;52.426;17.100;2022-10-26T00:31:06;7.00;99.90
24091;DHT22;12272;52.426;17.100;2022-10-26T00:46:24;6.80;99.90
24091;DHT22;12272;52.426;17.100;2022-10-26T00:51:35;6.60;99.90
24091;DHT22;12272;52.426;17.100;2022-10-26T00:56:38;6.60;99.90
24091;DHT22;12272;52.426;17.100;2022-10-26T01:01:44;6.80;99.90
24091;DHT22;12272;52.426;17.100;2022-10-26T01:06:48;7.00;99.90
24091;DHT22;12272;52.426;17.100;2022-10-26T01:11:51;7.20;99.90
24091;DHT22;12272;52.426;17.100;2022-10-26T01:22:28;7.30;99.90
24091;DHT22;12272;52.426;17.100;2022-10-26T01:27:49;7.10;99.90
24091;DHT22;12272;52.426;17.100;2022-10-26T01:33:04;7.10;99.90
24091;DHT22;12272;52.426;17.100;2022-10-26T01:43:27;6.90;99.90
24091;DHT22;12272;52.426;17.100;2022-10-26T01:48:32;7.00;99.90
24091;DHT22;12272;52.426;17.100;2022-10-26T01:53:35;7.10;99.90
24091;DHT22;12272;52.426;17.100;2022-10-26T02:09:56;7.50;99.90
24091;DHT22;12272;52.426;17.100;2022-10-26T02:20:16;7.70;99.90
24091;DHT22;12272;52.426;17.100;2022-10-26T02:25:23;7.80;99.90
24091;DHT22;12272;52.426;17.100;2022-10-26T02:30:27;7.90;99.90
24091;DHT22;12272;52.426;17.100;2022-10-26T02:35:33;8.00;99.90
24091;DHT22;12272;52.426;17.100;2022-10-26T02:40:37;8.10;99.90
24091;DHT22;12272;52.426;17.100;2022-10-26T02:45:47;8.10;99.90
24091;DHT22;12272;52.426;17.100;2022-10-26T02:51:17;8.00;99.90
24091;DHT22;12272;52.426;17.100;2022-10-26T02:56:35;8.10;99.90
24091;DHT22;12272;52.426;17.100;2022-10-26T03:01:40;8.10;99.90
24091;DHT22;12272;52.426;17.100;2022-10-26T03:06:53;8.10;99.90
24091;DHT22;12272;52.426;17.100;2022-10-26T03:11:56;8.10;99.90
24091;DHT22;12272;52.426;17.100;2022-10-26T03:16:58;8.10;99.90
24091;DHT22;12272;52.426;17.100;2022-10-26T03:22:01;8.10;99.90
24091;DHT22;12272;52.426;17.100;2022-10-26T03:27:03;8.10;99.90
24091;DHT22;12272;52.426;17.100;2022-10-26T03:32:06;8.10;99.90
24091;DHT22;12272;52.426;17.100;2022-10-26T03:37:08;8.10;99.90
24091;DHT22;12272;52.426;17.100;2022-10-26T03:42:11;8.10;99.90
24091;DHT22;12272;52.426;17.100;2022-10-26T03:47:13;8.10;99.90
24091;DHT22;12272;52.426;17.100;2022-10-26T03:52:16;8.10;99.90
24091;DHT22;12272;52.426;17.100;2022-10-26T03:57:18;8.00;99.90
24091;DHT22;12272;52.426;17.100;2022-10-26T04:02:21;8.00;99.90
24091;DHT22;12272;52.426;17.100;2022-10-26T04:07:23;8.00;99.90
24091;DHT22;12272;52.426;17.100;2022-10-26T04:12:26;7.90;99.90
24091;DHT22;12272;52.426;17.100;2022-10-26T04:17:28;7.90;99.90
24091;DHT22;12272;52.426;17.100;2022-10-26T04:22:31;8.00;99.90
24091;DHT22;12272;52.426;17.100;2022-10-26T04:27:33;8.00;99.90
24091;DHT22;12272;52.426;17.100;2022-10-26T04:32:36;7.90;99.90
24091;DHT22;12272;52.426;17.100;2022-10-26T04:37:39;8.00;99.90
24091;DHT22;12272;52.426;17.100;2022-10-26T04:42:43;7.90;99.90
24091;DHT22;12272;52.426;17.100;2022-10-26T04:47:46;8.00;99.90
24091;DHT22;12272;52.426;17.100;2022-10-26T04:52:49;8.00;99.90
24091;DHT22;12272;52.426;17.100;2022-10-26T04:57:53;8.00;99.90
24091;DHT22;12272;52.426;17.100;2022-10-26T05:03:02;7.90;99.90
24091;DHT22;12272;52.426;17.100;2022-10-26T05:08:05;7.80;99.90
24091;DHT22;12272;52.426;17.100;2022-10-26T05:13:08;7.70;99.90
24091;DHT22;12272;52.426;17.100;2022-10-26T05:18:11;7.60;99.90
24091;DHT22;12272;52.426;17.100;2022-10-26T05:23:14;7.40;99.90
24091;DHT22;12272;52.426;17.100;2022-10-26T05:28:20;7.50;99.90
24091;DHT22;12272;52.426;17.100;2022-10-26T05:33:22;7.30;99.90
24091;DHT22;12272;52.426;17.100;2022-10-26T05:38:24;7.30;99.90
24091;DHT22;12272;52.426;17.100;2022-10-26T05:43:32;7.30;99.90
24091;DHT22;12272;52.426;17.100;2022-10-26T05:48:34;7.30;99.90
24091;DHT22;12272;52.426;17.100;2022-10-26T05:53:37;7.30;99.90
24091;DHT22;12272;52.426;17.100;2022-10-26T05:58:40;7.40;99.90
24091;DHT22;12272;52.426;17.100;2022-10-26T06:08:51;7.40;99.90
24091;DHT22;12272;52.426;17.100;2022-10-26T06:13:54;7.30;99.90
24091;DHT22;12272;52.426;17.100;2022-10-26T06:24:42;7.30;99.90
24091;DHT22;12272;52.426;17.100;2022-10-26T06:30:01;7.40;99.90
24091;DHT22;12272;52.426;17.100;2022-10-26T06:40:40;7.40;99.90
24091;DHT22;12272;52.426;17.100;2022-10-26T06:45:44;8.20;99.90
24091;DHT22;12272;52.426;17.100;2022-10-26T06:50:52;7.60;99.90
24091;DHT22;12272;52.426;17.100;2022-10-26T06:55:57;7.60;99.90
24091;DHT22;12272;52.426;17.100;2022-10-26T07:01:01;7.60;99.90
24091;DHT22;12272;52.426;17.100;2022-10-26T07:06:04;7.90;99.90
24091;DHT22;12272;52.426;17.100;2022-10-26T07:11:07;7.80;99.90
24091;DHT22;12272;52.426;17.100;2022-10-26T07:16:10;8.00;99.90
24091;DHT22;12272;52.426;17.100;2022-10-26T07:21:12;8.10;99.90
24091;DHT22;12272;52.426;17.100;2022-10-26T07:26:15;8.10;99.90
24091;DHT22;12272;52.426;17.100;2022-10-26T07:31:18;8.30;99.90
24091;DHT22;12272;52.426;17.100;2022-10-26T07:36:20;8.30;99.90
24091;DHT22;12272;52.426;17.100;2022-10-26T07:41:23;8.30;99.90
24091;DHT22;12272;52.426;17.100;2022-10-26T07:46:26;8.40;99.90
24091;DHT22;12272;52.426;17.100;2022-10-26T07:51:28;8.60;99.90
24091;DHT22;12272;52.426;17.100;2022-10-26T07:56:31;9.90;99.90
24091;DHT22;12272;52.426;17.100;2022-10-26T08:01:33;9.00;99.90
24091;DHT22;12272;52.426;17.100;2022-10-26T08:06:38;9.00;99.90
24091;DHT22;12272;52.426;17.100;2022-10-26T08:11:40;9.00;99.90
24091;DHT22;12272;52.426;17.100;2022-10-26T08:16:43;9.20;99.90
24091;DHT22;12272;52.426;17.100;2022-10-26T08:21:45;9.30;99.90
24091;DHT22;12272;52.426;17.100;2022-10-26T08:26:48;9.40;99.90
24091;DHT22;12272;52.426;17.100;2022-10-26T08:31:50;9.40;99.90
24091;DHT22;12272;52.426;17.100;2022-10-26T08:36:53;9.40;99.90
24091;DHT22;12272;52.426;17.100;2022-10-26T08:42:06;9.70;99.90
24091;DHT22;12272;52.426;17.100;2022-10-26T08:47:20;9.70;99.90
24091;DHT22;12272;52.426;17.100;2022-10-26T08:52:29;10.00;99.90
24091;DHT22;12272;52.426;17.100;2022-10-26T08:57:39;10.00;99.90
24091;DHT22;12272;52.426;17.100;2022-10-26T09:02:42;10.20;99.90
24091;DHT22;12272;52.426;17.100;2022-10-26T09:28:40;10.70;99.90
24091;DHT22;12272;52.426;17.100;2022-10-26T09:33:46;10.40;99.90
24091;DHT22;12272;52.426;17.100;2022-10-26T09:39:17;10.70;99.90
24091;DHT22;12272;52.426;17.100;2022-10-26T09:49:48;11.00;99.90
24091;DHT22;12272;52.426;17.100;2022-10-26T09:54:53;11.20;99.90
24091;DHT22;12272;52.426;17.100;2022-10-26T09:59:56;11.30;99.90
24091;DHT22;12272;52.426;17.100;2022-10-26T10:04:59;11.50;99.90
24091;DHT22;12272;52.426;17.100;2022-10-26T10:10:10;11.70;99.90
24091;DHT22;12272;52.426;17.100;2022-10-26T10:15:21;11.60;99.90
24091;DHT22;12272;52.426;17.100;2022-10-26T10:20:31;11.90;99.90
24091;DHT22;12272;52.426;17.100;2022-10-26T10:25:38;11.70;99.90
24091;DHT22;12272;52.426;17.100;2022-10-26T10:30:51;11.50;99.90
24091;DHT22;12272;52.426;17.100;2022-10-26T10:35:56;11.80;99.90
24091;DHT22;12272;52.426;17.100;2022-10-26T10:40:59;12.10;99.90
24091;DHT22;12272;52.426;17.100;2022-10-26T10:46:05;12.00;99.90
24091;DHT22;12272;52.426;17.100;2022-10-26T10:51:08;11.90;99.90
24091;DHT22;12272;52.426;17.100;2022-10-26T11:01:47;12.10;99.90
24091;DHT22;12272;52.426;17.100;2022-10-26T11:06:51;12.50;99.90
24091;DHT22;12272;52.426;17.100;2022-10-26T11:12:12;12.60;99.90
24091;DHT22;12272;52.426;17.100;2022-10-26T11:17:23;13.00;99.90
24091;DHT22;12272;52.426;17.100;2022-10-26T11:22:57;12.80;99.90
24091;DHT22;12272;52.426;17.100;2022-10-26T11:28:00;12.80;99.90
24091;DHT22;12272;52.426;17.100;2022-10-26T11:33:22;12.90;99.90
24091;DHT22;12272;52.426;17.100;2022-10-26T11:38:42;12.70;99.90
24091;DHT22;12272;52.426;17.100;2022-10-26T11:44:18;12.80;99.90
24091;DHT22;12272;52.426;17.100;2022-10-26T11:55:07;13.00;99.90
24091;DHT22;12272;52.426;17.100;2022-10-26T12:00:18;13.60;99.90
24091;DHT22;12272;52.426;17.100;2022-10-26T12:10:38;13.70;99.90
24091;DHT22;12272;52.426;17.100;2022-10-26T12:15:49;14.30;99.90
24091;DHT22;12272;52.426;17.100;2022-10-26T12:21:06;14.00;99.90
24091;DHT22;12272;52.426;17.100;2022-10-26T12:26:37;14.00;99.90
24091;DHT22;12272;52.426;17.100;2022-10-26T12:31:41;14.40;99.90
24091;DHT22;12272;52.426;17.100;2022-10-26T13:08:49;14.70;99.90
24091;DHT22;12272;52.426;17.100;2022-10-26T13:14:04;14.60;99.90
24091;DHT22;12272;52.426;17.100;2022-10-26T13:19:31;14.80;99.90
24091;DHT22;12272;52.426;17.100;2022-10-26T13:24:35;14.90;99.90
24091;DHT22;12272;52.426;17.100;2022-10-26T13:35:11;15.00;99.90
24091;DHT22;12272;52.426;17.100;2022-10-26T13:40:25;15.30;99.90
24091;DHT22;12272;52.426;17.100;2022-10-26T13:45:33;15.30;99.90
24091;DHT22;12272;52.426;17.100;2022-10-26T13:50:53;15.20;99.90
24091;DHT22;12272;52.426;17.100;2022-10-26T14:01:25;14.90;99.90
24091;DHT22;12272;52.426;17.100;2022-10-26T14:06:32;14.80;99.90
24091;DHT22;12272;52.426;17.100;2022-10-26T14:11:43;14.50;99.90
24091;DHT22;12272;52.426;17.100;2022-10-26T14:16:49;14.40;99.90
24091;DHT22;12272;52.426;17.100;2022-10-26T14:21:52;14.40;99.90
24091;DHT22;12272;52.426;17.100;2022-10-26T14:26:55;14.40;99.90
24091;DHT22;12272;52.426;17.100;2022-10-26T14:31:59;14.40;99.90
24091;DHT22;12272;52.426;17.100;2022-10-26T14:37:02;14.40;99.90
24091;DHT22;12272;52.426;17.100;2022-10-26T14:47:29;14.30;99.90
24091;DHT22;12272;52.426;17.100;2022-10-26T14:52:34;14.20;99.90
24091;DHT22;12272;52.426;17.100;2022-10-26T14:57:39;14.20;99.90
24091;DHT22;12272;52.426;17.100;2022-10-26T15:02:54;13.90;99.90
24091;DHT22;12272;52.426;17.100;2022-10-26T15:07:57;13.60;99.90
24091;DHT22;12272;52.426;17.100;2022-10-26T15:13:14;13.50;99.90
24091;DHT22;12272;52.426;17.100;2022-10-26T15:18:27;13.10;99.90
24091;DHT22;12272;52.426;17.100;2022-10-26T15:23:30;12.70;99.90
24091;DHT22;12272;52.426;17.100;2022-10-26T15:33:41;12.10;99.90
24091;DHT22;12272;52.426;17.100;2022-10-26T15:38:44;11.90;99.90
24091;DHT22;12272;52.426;17.100;2022-10-26T15:43:49;11.90;99.90
24091;DHT22;12272;52.426;17.100;2022-10-26T15:48:57;11.30;99.90
24091;DHT22;12272;52.426;17.100;2022-10-26T15:54:02;11.20;99.90
24091;DHT22;12272;52.426;17.100;2022-10-26T15:59:16;11.10;99.90
24091;DHT22;12272;52.426;17.100;2022-10-26T16:04:19;10.80;99.90
24091;DHT22;12272;52.426;17.100;2022-10-26T16:09:22;10.60;99.90
24091;DHT22;12272;52.426;17.100;2022-10-26T16:14:24;11.60;99.90
24091;DHT22;12272;52.426;17.100;2022-10-26T16:19:34;10.50;99.90
24091;DHT22;12272;52.426;17.100;2022-10-26T16:24:36;10.30;99.90
24091;DHT22;12272;52.426;17.100;2022-10-26T16:29:39;10.10;99.90
24091;DHT22;12272;52.426;17.100;2022-10-26T16:34:41;10.00;99.90
24091;DHT22;12272;52.426;17.100;2022-10-26T16:39:44;10.00;99.90
24091;DHT22;12272;52.426;17.100;2022-10-26T16:44:46;9.80;99.90
24091;DHT22;12272;52.426;17.100;2022-10-26T16:49:49;9.60;99.90
24091;DHT22;12272;52.426;17.100;2022-10-26T16:54:51;9.50;99.90
24091;DHT22;12272;52.426;17.100;2022-10-26T16:59:56;9.60;99.90
24091;DHT22;12272;52.426;17.100;2022-10-26T17:04:59;9.60;99.90
24091;DHT22;12272;52.426;17.100;2022-10-26T17:10:08;9.30;99.90
24091;DHT22;12272;52.426;17.100;2022-10-26T17:15:10;9.00;99.90
24091;DHT22;12272;52.426;17.100;2022-10-26T17:20:22;8.90;99.90
24091;DHT22;12272;52.426;17.100;2022-10-26T17:25:28;8.90;99.90
24091;DHT22;12272;52.426;17.100;2022-10-26T17:30:31;8.70;99.90
24091;DHT22;12272;52.426;17.100;2022-10-26T17:35:36;8.70;99.90
24091;DHT22;12272;52.426;17.100;2022-10-26T17:40:40;8.60;99.90
24091;DHT22;12272;52.426;17.100;2022-10-26T17:45:42;8.40;99.90
24091;DHT22;12272;52.426;17.100;2022-10-26T17:50:45;8.30;99.90
24091;DHT22;12272;52.426;17.100;2022-10-26T17:55:48;8.20;99.90
24091;DHT22;12272;52.426;17.100;2022-10-26T18:00:51;8.30;99.90
24091;DHT22;12272;52.426;17.100;2022-10-26T18:05:54;8.20;99.90
24091;DHT22;12272;52.426;17.100;2022-10-26T18:10:57;8.10;99.90
24091;DHT22;12272;52.426;17.100;2022-10-26T18:16:05;8.10;99.90
24091;DHT22;12272;52.426;17.100;2022-10-26T18:21:10;8.00;99.90
24091;DHT22;12272;52.426;17.100;2022-10-26T18:26:16;8.00;99.90
24091;DHT22;12272;52.426;17.100;2022-10-26T18:31:21;8.00;99.90
24091;DHT22;12272;52.426;17.100;2022-10-26T18:36:24;7.80;99.90
24091;DHT22;12272;52.426;17.100;2022-10-26T18:41:27;8.00;99.90
24091;DHT22;12272;52.426;17.100;2022-10-26T18:46:35;7.80;99.90
24091;DHT22;12272;52.426;17.100;2022-10-26T18:56:44;7.60;99.90
24091;DHT22;12272;52.426;17.100;2022-10-26T19:01:48;7.70;99.90
24091;DHT22;12272;52.426;17.100;2022-10-26T19:06:51;7.60;99.90
24091;DHT22;12272;52.426;17.100;2022-10-26T19:11:53;7.60;99.90
24091;DHT22;12272;52.426;17.100;2022-10-26T19:16:57;7.60;99.90
24091;DHT22;12272;52.426;17.100;2022-10-26T19:21:59;7.60;99.90
24091;DHT22;12272;52.426;17.100;2022-10-26T19:27:02;7.50;99.90
24091;DHT22;12272;52.426;17.100;2022-10-26T19:32:05;7.40;99.90
24091;DHT22;12272;52.426;17.100;2022-10-26T19:37:07;7.50;99.90
24091;DHT22;12272;52.426;17.100;2022-10-26T19:42:10;7.40;99.90
24091;DHT22;12272;52.426;17.100;2022-10-26T19:47:13;7.50;99.90
24091;DHT22;12272;52.426;17.100;2022-10-26T19:52:15;7.50;99.90
24091;DHT22;12272;52.426;17.100;2022-10-26T19:57:23;7.40;99.90
24091;DHT22;12272;52.426;17.100;2022-10-26T20:02:25;7.20;99.90
24091;DHT22;12272;52.426;17.100;2022-10-26T20:07:28;7.30;99.90
24091;DHT22;12272;52.426;17.100;2022-10-26T20:12:30;7.10;99.90
24091;DHT22;12272;52.426;17.100;2022-10-26T20:17:33;7.20;99.90
24091;DHT22;12272;52.426;17.100;2022-10-26T20:22:36;7.20;99.90
24091;DHT22;12272;52.426;17.100;2022-10-26T20:27:39;7.00;99.90
24091;DHT22;12272;52.426;17.100;2022-10-26T20:32:43;7.00;99.90
24091;DHT22;12272;52.426;17.100;2022-10-26T20:37:45;7.00;99.90
24091;DHT22;12272;52.426;17.100;2022-10-26T20:42:49;6.90;99.90
24091;DHT22;12272;52.426;17.100;2022-10-26T20:47:54;6.90;99.90
24091;DHT22;12272;52.426;17.100;2022-10-26T20:54:04;7.00;99.90
24091;DHT22;12272;52.426;17.100;2022-10-26T20:58:40;7.10;99.90
24091;DHT22;12272;52.426;17.100;2022-10-26T21:03:45;6.80;99.90
24091;DHT22;12272;52.426;17.100;2022-10-26T21:08:48;6.90;99.90
24091;DHT22;12272;52.426;17.100;2022-10-26T21:13:52;7.00;99.90
24091;DHT22;12272;52.426;17.100;2022-10-26T21:18:55;6.90;99.90
24091;DHT22;12272;52.426;17.100;2022-10-26T21:23:57;6.80;99.90
24091;DHT22;12272;52.426;17.100;2022-10-26T21:29:00;6.80;99.90
24091;DHT22;12272;52.426;17.100;2022-10-26T21:34:02;6.60;99.90
24091;DHT22;12272;52.426;17.100;2022-10-26T21:39:05;6.60;99.90
24091;DHT22;12272;52.426;17.100;2022-10-26T21:44:08;6.50;99.90
24091;DHT22;12272;52.426;17.100;2022-10-26T21:49:31;6.40;99.90
24091;DHT22;12272;52.426;17.100;2022-10-26T21:54:33;6.40;99.90
24091;DHT22;12272;52.426;17.100;2022-10-26T21:59:36;6.50;99.90
24091;DHT22;12272;52.426;17.100;2022-10-26T22:04:38;6.50;99.90
24091;DHT22;12272;52.426;17.100;2022-10-26T22:09:41;6.30;99.90
24091;DHT22;12272;52.426;17.100;2022-10-26T22:15:04;6.50;99.90
24091;DHT22;12272;52.426;17.100;2022-10-26T22:20:08;6.30;99.90
24091;DHT22;12272;52.426;17.100;2022-10-26T22:25:21;6.20;99.90
24091;DHT22;12272;52.426;17.100;2022-10-26T22:30:32;6.30;99.90
24091;DHT22;12272;52.426;17.100;2022-10-26T22:35:37;6.30;99.90
24091;DHT22;12272;52.426;17.100;2022-10-26T22:40:40;6.40;99.90
24091;DHT22;12272;52.426;17.100;2022-10-26T22:45:42;6.80;99.90
24091;DHT22;12272;52.426;17.100;2022-10-26T22:50:44;6.80;99.90
24091;DHT22;12272;52.426;17.100;2022-10-26T22:55:47;6.80;99.90
24091;DHT22;12272;52.426;17.100;2022-10-26T23:00:50;6.80;99.90
24091;DHT22;12272;52.426;17.100;2022-10-26T23:05:52;6.80;99.90
24091;DHT22;12272;52.426;17.100;2022-10-26T23:10:59;6.90;99.90
24091;DHT22;12272;52.426;17.100;2022-10-26T23:16:15;7.00;99.90
24091;DHT22;12272;52.426;17.100;2022-10-26T23:21:21;7.10;99.90
24091;DHT22;12272;52.426;17.100;2022-10-26T23:26:24;7.30;99.90
24091;DHT22;12272;52.426;17.100;2022-10-26T23:31:27;7.20;99.90
24091;DHT22;12272;52.426;17.100;2022-10-26T23:36:29;7.00;99.90
24091;DHT22;12272;52.426;17.100;2022-10-26T23:41:32;6.90;99.90
24091;DHT22;12272;52.426;17.100;2022-10-26T23:46:34;6.80;99.90
24091;DHT22;12272;52.426;17.100;2022-10-26T23:51:37;6.90;99.90
24091;DHT22;12272;52.426;17.100;2022-10-26T23:56:39;6.70;99.90
